Time;durP1;ratioP1;P1;durP2;ratioP2;P2;SDS_P1;SDS_P2;PMS_P1;PMS_P2;Temp;Humidity;BMP_temperature;BMP_pressure;BME280_temperature;BME280_humidity;BME280_pressure;Samples;Min_cycle;Max_cycle;Signal;HPM_P1;HPM_P2
2023/10/18 00:01:09;;;;;;;26.40;14.93;;;;;;;;;;5011108;28;20118;-56
2023/10/18 00:03:36;;;;;;;26.77;15.80;;;;;;;;;;5009786;28;20042;-56
2023/10/18 00:06:11;;;;;;;27.08;15.68;;;;;;;;;;5010964;28;20034;-54
2023/10/18 00:08:38;;;;;;;30.65;16.08;;;;;;;;;;5011004;28;20025;-56
2023/10/18 00:11:04;;;;;;;28.60;15.70;;;;;;;;;;5009198;28;20057;-54
2023/10/18 00:13:31;;;;;;;30.52;15.32;;;;;;;;;;5010835;28;20026;-53
2023/10/18 00:16:03;;;;;;;27.77;14.82;;;;;;;;;;5010823;28;20036;-52
2023/10/18 00:18:30;;;;;;;27.90;14.60;;;;;;;;;;5010780;28;20022;-56
2023/10/18 00:20:59;;;;;;;26.58;14.60;;;;;;;;;;5010385;28;20106;-56
2023/10/18 00:23:27;;;;;;;28.98;15.23;;;;;;;;;;5010615;28;20534;-55
2023/10/18 00:25:53;;;;;;;25.92;14.13;;;;;;;;;;5010580;28;20088;-57
2023/10/18 00:28:20;;;;;;;30.17;15.75;;;;;;;;;;5011016;28;20073;-56
2023/10/18 00:30:46;;;;;;;25.55;14.48;;;;;;;;;;5010434;28;20021;-55
2023/10/18 00:33:12;;;;;;;26.20;14.40;;;;;;;;;;5010671;28;20101;-53
2023/10/18 00:35:41;;;;;;;30.20;15.25;;;;;;;;;;5009278;28;20495;-55
2023/10/18 00:38:18;;;;;;;26.05;15.23;;;;;;;;;;5009299;28;20029;-52
2023/10/18 00:40:45;;;;;;;26.17;14.80;;;;;;;;;;5010793;28;20169;-53
2023/10/18 00:45:45;;;;;;;31.45;17.67;;;;;;;;;;5010733;28;20038;-55
2023/10/18 00:48:11;;;;;;;27.95;15.52;;;;;;;;;;5010888;28;20037;-58
2023/10/18 00:50:42;;;;;;;24.63;14.90;;;;;;;;;;5010495;28;20030;-55
2023/10/18 00:53:08;;;;;;;25.98;14.52;;;;;;;;;;5010841;28;20404;-53
2023/10/18 00:55:34;;;;;;;25.13;14.45;;;;;;;;;;5010740;28;20048;-56
2023/10/18 00:58:05;;;;;;;28.52;15.27;;;;;;;;;;5010407;28;20420;-54
2023/10/18 01:00:31;;;;;;;25.85;15.05;;;;;;;;;;5010111;28;20536;-52
2023/10/18 01:02:59;;;;;;;24.77;15.20;;;;;;;;;;5008926;28;20018;-56
2023/10/18 01:05:25;;;;;;;27.85;13.65;;;;;;;;;;5008860;28;20026;-54
2023/10/18 01:07:54;;;;;;;25.02;14.65;;;;;;;;;;5008857;28;20040;-56
2023/10/18 01:10:23;;;;;;;23.50;15.05;;;;;;;;;;5010156;28;20630;-49
2023/10/18 01:12:52;;;;;;;30.45;15.60;;;;;;;;;;5009913;28;20061;-55
2023/10/18 01:15:20;;;;;;;25.42;15.15;;;;;;;;;;5010057;28;20456;-52
2023/10/18 01:17:47;;;;;;;28.15;15.07;;;;;;;;;;5010153;28;20026;-57
2023/10/18 01:22:58;;;;;;;24.83;13.93;;;;;;;;;;5010083;28;20045;-55
2023/10/18 01:25:24;;;;;;;27.55;14.10;;;;;;;;;;5009910;28;20033;-59
2023/10/18 01:27:51;;;;;;;28.67;15.52;;;;;;;;;;5008869;28;20113;-53
2023/10/18 01:30:19;;;;;;;27.75;15.95;;;;;;;;;;5009822;28;20075;-51
2023/10/18 01:32:45;;;;;;;29.73;15.95;;;;;;;;;;5009840;28;20545;-50
2023/10/18 01:35:15;;;;;;;26.48;15.63;;;;;;;;;;5009922;28;20495;-51
2023/10/18 01:37:43;;;;;;;27.85;14.68;;;;;;;;;;5010008;28;20063;-51
2023/10/18 01:42:57;;;;;;;27.48;14.27;;;;;;;;;;5008450;28;20038;-56
2023/10/18 01:45:23;;;;;;;25.50;13.70;;;;;;;;;;5013560;28;20029;-54
2023/10/18 01:47:51;;;;;;;27.23;14.68;;;;;;;;;;5013876;28;20038;-53
2023/10/18 01:50:18;;;;;;;27.77;15.45;;;;;;;;;;5012437;28;20153;-53
2023/10/18 01:52:44;;;;;;;26.45;14.93;;;;;;;;;;5013505;28;20060;-56
2023/10/18 01:55:12;;;;;;;27.65;13.63;;;;;;;;;;5013269;28;20029;-57
2023/10/18 01:57:38;;;;;;;26.35;15.13;;;;;;;;;;5013188;28;20022;-56
2023/10/18 02:00:05;;;;;;;26.65;14.90;;;;;;;;;;5013100;28;20022;-56
2023/10/18 02:02:32;;;;;;;25.95;14.55;;;;;;;;;;5013129;28;20022;-54
2023/10/18 02:04:58;;;;;;;27.02;14.45;;;;;;;;;;5013223;28;20026;-53
2023/10/18 02:07:24;;;;;;;25.85;14.82;;;;;;;;;;5013132;28;20116;-56
2023/10/18 02:09:57;;;;;;;26.27;13.98;;;;;;;;;;5011498;28;20029;-54
2023/10/18 02:12:27;;;;;;;25.70;15.88;;;;;;;;;;5012686;28;20042;-53
2023/10/18 02:14:55;;;;;;;27.65;14.55;;;;;;;;;;5012714;28;20101;-55
2023/10/18 02:17:21;;;;;;;27.95;14.35;;;;;;;;;;5012807;28;20472;-57
2023/10/18 02:19:47;;;;;;;26.95;14.85;;;;;;;;;;5012437;28;20106;-56
2023/10/18 02:22:13;;;;;;;27.00;14.52;;;;;;;;;;5012735;28;20029;-52
2023/10/18 02:24:42;;;;;;;24.40;14.15;;;;;;;;;;5012429;28;20030;-58
2023/10/18 02:27:09;;;;;;;25.15;14.40;;;;;;;;;;5011346;28;20088;-54
2023/10/18 02:29:36;;;;;;;27.77;15.27;;;;;;;;;;5012500;28;20033;-53
2023/10/18 02:34:47;;;;;;;27.70;14.75;;;;;;;;;;5012594;28;20092;-57
2023/10/18 02:37:15;;;;;;;25.48;14.73;;;;;;;;;;5012463;28;20026;-54
2023/10/18 02:39:41;;;;;;;;;;;;;;;;;;5011332;28;20036;-54
2023/10/18 02:42:08;;;;;;;27.30;15.02;;;;;;;;;;5012529;28;19953;-54
2023/10/18 02:44:35;;;;;;;27.85;15.60;;;;;;;;;;5012530;28;20109;-51
2023/10/18 02:47:16;;;;;;;26.02;14.50;;;;;;;;;;5011353;28;20503;-55
2023/10/18 02:49:45;;;;;;;26.67;14.43;;;;;;;;;;5012673;28;20022;-56
2023/10/18 02:52:11;;;;;;;26.92;14.10;;;;;;;;;;5010440;28;20591;-57
2023/10/18 02:54:39;;;;;;;26.40;15.70;;;;;;;;;;5012020;28;20084;-54
2023/10/18 02:57:05;;;;;;;27.05;14.85;;;;;;;;;;5012229;28;20029;-56
2023/10/18 02:59:31;;;;;;;25.55;15.13;;;;;;;;;;5011864;28;20029;-57
2023/10/18 03:02:01;;;;;;;25.92;14.32;;;;;;;;;;5012148;28;20022;-55
2023/10/18 03:04:29;;;;;;;24.52;14.43;;;;;;;;;;5012171;28;20525;-53
2023/10/18 03:06:55;;;;;;;28.40;15.95;;;;;;;;;;5012067;28;20106;-54
2023/10/18 03:09:38;;;;;;;25.58;14.70;;;;;;;;;;5010559;28;20542;-53
2023/10/18 03:12:06;;;;;;;25.02;14.70;;;;;;;;;;5010666;28;20058;-54
2023/10/18 03:14:41;;;;;;;27.45;14.05;;;;;;;;;;5010507;28;20026;-55
2023/10/18 03:19:54;;;;;;;26.52;14.93;;;;;;;;;;5011571;28;20029;-56
2023/10/18 03:22:26;;;;;;;29.02;15.73;;;;;;;;;;5011836;28;20034;-54
2023/10/18 03:24:56;;;;;;;27.95;15.77;;;;;;;;;;5011705;28;20479;-56
2023/10/18 03:27:25;;;;;;;27.75;15.25;;;;;;;;;;5011515;28;20487;-52
2023/10/18 03:29:57;;;;;;;30.95;16.25;;;;;;;;;;5011305;28;20026;-55
2023/10/18 03:32:24;;;;;;;31.17;15.48;;;;;;;;;;5011492;28;20029;-58
2023/10/18 03:34:53;;;;;;;28.08;15.68;;;;;;;;;;5011467;28;20026;-58
2023/10/18 03:37:24;;;;;;;29.65;17.02;;;;;;;;;;5010123;28;20022;-55
2023/10/18 03:39:54;;;;;;;28.45;16.45;;;;;;;;;;5010040;28;20037;-53
2023/10/18 03:42:54;;;;;;;27.15;15.10;;;;;;;;;;5010232;28;20105;-53
2023/10/18 03:45:20;;;;;;;27.45;16.02;;;;;;;;;;5008945;28;20061;-55
2023/10/18 03:47:57;;;;;;;28.05;15.77;;;;;;;;;;5009927;28;20041;-53
2023/10/18 03:50:40;;;;;;;28.52;17.27;;;;;;;;;;5010882;28;20111;-56
2023/10/18 03:53:13;;;;;;;29.90;16.38;;;;;;;;;;5011111;28;20041;-57
2023/10/18 03:55:45;;;;;;;33.20;17.05;;;;;;;;;;5010970;28;20080;-53
2023/10/18 03:58:17;;;;;;;28.63;16.67;;;;;;;;;;5010857;28;20594;-53
2023/10/18 04:00:47;;;;;;;30.63;17.20;;;;;;;;;;5009532;28;20029;-54
2023/10/18 04:03:15;;;;;;;33.42;16.98;;;;;;;;;;5010586;28;20018;-52
2023/10/18 04:05:45;;;;;;;29.80;15.80;;;;;;;;;;5010736;28;20391;-55
2023/10/18 04:08:15;;;;;;;29.73;16.58;;;;;;;;;;5010852;28;20538;-56
2023/10/18 04:10:41;;;;;;;29.40;17.02;;;;;;;;;;5010339;28;20136;-58
2023/10/18 04:13:14;;;;;;;26.08;16.42;;;;;;;;;;5010648;28;20543;-52
2023/10/18 04:15:52;;;;;;;32.03;17.90;;;;;;;;;;5009250;28;20032;-55
2023/10/18 04:18:29;;;;;;;30.20;18.03;;;;;;;;;;5010691;28;20101;-55
2023/10/18 04:21:01;;;;;;;30.35;16.55;;;;;;;;;;5009390;28;20026;-55
2023/10/18 04:23:27;;;;;;;28.58;16.65;;;;;;;;;;5009301;28;20025;-53
2023/10/18 04:26:27;;;;;;;29.58;17.40;;;;;;;;;;5009345;28;20038;-54
2023/10/18 04:28:46;;;;;;;30.85;16.85;;;;;;;;;;5008321;28;20026;-54
2023/10/18 04:31:12;;;;;;;31.60;17.05;;;;;;;;;;5009154;28;20495;-57
2023/10/18 04:33:42;;;;;;;30.42;17.65;;;;;;;;;;5010546;28;20061;-53
2023/10/18 04:36:10;;;;;;;29.17;17.63;;;;;;;;;;5009337;28;20022;-54
2023/10/18 04:38:46;;;;;;;31.15;18.10;;;;;;;;;;5010583;28;20025;-57
2023/10/18 04:43:50;;;;;;;28.80;17.02;;;;;;;;;;5010523;28;20022;-57
2023/10/18 04:46:18;;;;;;;;;;;;;;;;;;;;;
2023/10/18 04:51:26;;;;;;;32.72;17.48;;;;;;;;;;5010313;28;20034;-53
2023/10/18 04:54:15;;;;;;;33.42;18.15;;;;;;;;;;5010529;28;20030;-52
2023/10/18 04:56:44;;;;;;;;;;;;;;;;;;5010118;28;20514;-56
2023/10/18 05:04:18;;;;;;;28.13;16.85;;;;;;;;;;5010063;28;20041;-55
2023/10/18 05:06:54;;;;;;;34.15;18.48;;;;;;;;;;5009755;28;20064;-55
2023/10/18 05:09:29;;;;;;;28.85;16.00;;;;;;;;;;5010252;28;20041;-58
2023/10/18 05:11:55;;;;;;;30.92;18.10;;;;;;;;;;5024501;23;20088;-53
2023/10/18 05:14:35;;;;;;;28.45;16.63;;;;;;;;;;5009508;28;20100;-49
2023/10/18 05:17:04;;;;;;;29.27;16.00;;;;;;;;;;5013476;28;20487;-51
2023/10/18 05:19:37;;;;;;;28.80;15.93;;;;;;;;;;5012897;28;20026;-54
2023/10/18 05:22:04;;;;;;;28.67;17.45;;;;;;;;;;5013189;28;20048;-52
2023/10/18 05:24:36;;;;;;;30.10;16.52;;;;;;;;;;5013194;28;20614;-50
2023/10/18 05:27:05;;;;;;;32.38;18.35;;;;;;;;;;5013240;28;20041;-51
2023/10/18 05:29:43;;;;;;;33.90;17.38;;;;;;;;;;5013037;28;20088;-50
2023/10/18 05:35:03;;;;;;;28.85;16.08;;;;;;;;;;5011072;28;20045;-50
2023/10/18 05:37:33;;;;;;;32.20;17.08;;;;;;;;;;5012883;28;20416;-49
2023/10/18 05:42:48;;;;;;;26.40;15.55;;;;;;;;;;5012857;28;20040;-54
2023/10/18 05:45:14;;;;;;;28.98;15.77;;;;;;;;;;5008306;28;20514;-53
2023/10/18 05:47:43;;;;;;;29.73;16.88;;;;;;;;;;5011770;28;20034;-51
2023/10/18 05:50:12;;;;;;;28.85;16.73;;;;;;;;;;5012772;28;20101;-54
2023/10/18 05:52:38;;;;;;;27.23;15.52;;;;;;;;;;5012631;28;20048;-55
2023/10/18 05:55:09;;;;;;;30.13;16.35;;;;;;;;;;5012430;28;20026;-54
2023/10/18 05:57:35;;;;;;;28.85;17.95;;;;;;;;;;5011000;28;20022;-47
2023/10/18 06:00:15;;;;;;;30.63;16.20;;;;;;;;;;5012491;28;20030;-54
2023/10/18 06:02:42;;;;;;;30.38;17.52;;;;;;;;;;5012381;28;20029;-55
2023/10/18 06:05:09;;;;;;;30.48;16.05;;;;;;;;;;5012555;28;20026;-50
2023/10/18 06:07:36;;;;;;;33.47;18.63;;;;;;;;;;5012196;28;20050;-55
2023/10/18 06:10:13;;;;;;;30.60;17.50;;;;;;;;;;5011716;28;20030;-53
2023/10/18 06:12:41;;;;;;;26.95;15.63;;;;;;;;;;5011849;28;20025;-50
2023/10/18 06:15:11;;;;;;;28.85;17.50;;;;;;;;;;5012199;28;20029;-50
2023/10/18 06:17:46;;;;;;;27.15;16.75;;;;;;;;;;5010807;28;20076;-52
2023/10/18 06:20:27;;;;;;;32.53;16.77;;;;;;;;;;5011655;28;20045;-50
2023/10/18 06:23:09;;;;;;;28.25;16.60;;;;;;;;;;5010796;28;20033;-50
2023/10/18 06:25:44;;;;;;;29.50;17.30;;;;;;;;;;5010906;28;20576;-54
2023/10/18 06:28:11;;;;;;;29.50;16.65;;;;;;;;;;5009812;28;20032;-55
2023/10/18 06:30:40;;;;;;;27.38;17.13;;;;;;;;;;5011136;28;20071;-52
2023/10/18 06:33:07;;;;;;;26.05;16.08;;;;;;;;;;5011680;28;20396;-51
2023/10/18 06:35:42;;;;;;;30.63;15.93;;;;;;;;;;5011623;28;20029;-50
2023/10/18 06:38:10;;;;;;;28.00;16.95;;;;;;;;;;5012079;28;20018;-49
2023/10/18 06:43:32;;;;;;;28.20;17.13;;;;;;;;;;5001969;28;20021;-51
2023/10/18 06:45:58;;;;;;;26.67;15.05;;;;;;;;;;5011641;28;20512;-49
2023/10/18 06:48:28;;;;;;;25.27;15.98;;;;;;;;;;5010592;28;20033;-51
2023/10/18 06:50:54;;;;;;;25.95;16.40;;;;;;;;;;5011210;28;20037;-49
2023/10/18 06:53:20;;;;;;;26.40;15.70;;;;;;;;;;5011855;28;20021;-51
2023/10/18 06:55:59;;;;;;;28.08;17.10;;;;;;;;;;5011086;28;20021;-50
2023/10/18 07:00:54;;;;;;;25.83;16.52;;;;;;;;;;5011071;28;20049;-54
2023/10/18 07:03:27;;;;;;;30.30;17.05;;;;;;;;;;5011519;28;20506;-49
2023/10/18 07:05:57;;;;;;;29.05;16.15;;;;;;;;;;5011381;28;20033;-50
2023/10/18 07:08:29;;;;;;;28.38;14.95;;;;;;;;;;5011415;28;20491;-55
2023/10/18 07:11:01;;;;;;;26.52;15.45;;;;;;;;;;5003790;28;20041;-50
2023/10/18 07:13:33;;;;;;;25.95;15.00;;;;;;;;;;5011280;28;20045;-53
2023/10/18 07:16:06;;;;;;;27.33;15.15;;;;;;;;;;5011296;28;20029;-53
2023/10/18 07:18:36;;;;;;;30.50;15.48;;;;;;;;;;5010069;28;20018;-46
2023/10/18 07:21:09;;;;;;;29.50;16.15;;;;;;;;;;5011243;28;20033;-49
2023/10/18 07:23:39;;;;;;;24.80;15.80;;;;;;;;;;5011077;28;20022;-53
2023/10/18 07:26:16;;;;;;;29.52;16.45;;;;;;;;;;5011476;28;20053;-49
2023/10/18 07:28:44;;;;;;;25.83;15.30;;;;;;;;;;5011339;28;20053;-52
2023/10/18 07:31:10;;;;;;;29.85;16.98;;;;;;;;;;5011222;28;20018;-47
2023/10/18 07:33:40;;;;;;;30.65;15.85;;;;;;;;;;5011026;28;20044;-46
2023/10/18 07:36:11;;;;;;;27.17;16.70;;;;;;;;;;5010835;28;20026;-47
2023/10/18 07:38:55;;;;;;;29.92;15.88;;;;;;;;;;5010597;28;20022;-47
2023/10/18 07:41:27;;;;;;;26.65;16.85;;;;;;;;;;5010597;28;20025;-49
2023/10/18 07:43:55;;;;;;;29.65;16.85;;;;;;;;;;5011037;28;20025;-49
2023/10/18 07:46:24;;;;;;;26.85;15.85;;;;;;;;;;5011059;28;20117;-50
2023/10/18 07:48:53;;;;;;;25.33;16.20;;;;;;;;;;5010168;28;20511;-49
2023/10/18 07:51:26;;;;;;;27.10;14.75;;;;;;;;;;5025149;28;20040;-50
2023/10/18 07:53:53;;;;;;;22.88;14.38;;;;;;;;;;5004953;28;20033;-50
2023/10/18 07:56:26;;;;;;;26.80;15.40;;;;;;;;;;5010614;28;20395;-49
2023/10/18 07:58:53;;;;;;;28.30;15.05;;;;;;;;;;5006799;28;20107;-51
2023/10/18 08:04:04;;;;;;;25.25;14.73;;;;;;;;;;5010777;28;20037;-48
2023/10/18 08:06:34;;;;;;;22.52;14.30;;;;;;;;;;5010340;28;20494;-52
2023/10/18 08:09:03;;;;;;;24.20;14.25;;;;;;;;;;5009974;28;20535;-50
2023/10/18 08:11:32;;;;;;;23.13;14.73;;;;;;;;;;5010183;28;20456;-50
2023/10/18 08:13:58;;;;;;;;;;;;;;;;;;5011055;28;20030;-48
2023/10/18 08:16:42;;;;;;;23.88;14.13;;;;;;;;;;5008738;28;19925;-54
2023/10/18 08:19:08;;;;;;;22.17;14.40;;;;;;;;;;4987856;28;20041;-51
2023/10/18 08:21:37;;;;;;;24.13;15.07;;;;;;;;;;4987652;28;20030;-53
2023/10/18 08:24:25;;;;;;;21.55;13.65;;;;;;;;;;4988992;28;20026;-56
2023/10/18 08:26:51;;;;;;;25.02;14.80;;;;;;;;;;4987917;28;20070;-49
2023/10/18 08:29:18;;;;;;;22.25;14.75;;;;;;;;;;4988930;28;20085;-53
2023/10/18 08:31:48;;;;;;;27.33;15.40;;;;;;;;;;4990153;28;20044;-49
2023/10/18 08:34:18;;;;;;;23.20;14.80;;;;;;;;;;4990496;28;20022;-51
2023/10/18 08:36:44;;;;;;;24.63;14.25;;;;;;;;;;5002222;28;20387;-50
2023/10/18 08:39:10;;;;;;;25.50;14.35;;;;;;;;;;5009993;28;20092;-50
2023/10/18 08:41:44;;;;;;;25.15;15.15;;;;;;;;;;5009993;28;20026;-49
2023/10/18 08:44:18;;;;;;;23.90;14.27;;;;;;;;;;5010154;28;20434;-51
2023/10/18 08:46:52;;;;;;;22.55;14.50;;;;;;;;;;5008859;28;20170;-46
2023/10/18 08:49:22;;;;;;;24.83;14.85;;;;;;;;;;5009520;28;20213;-52
2023/10/18 08:51:54;;;;;;;22.20;13.88;;;;;;;;;;5009799;28;20392;-53
2023/10/18 08:54:22;;;;;;;22.27;14.57;;;;;;;;;;5008506;28;20021;-50
2023/10/18 08:56:48;;;;;;;22.97;14.13;;;;;;;;;;5009967;28;20018;-49
2023/10/18 08:59:20;;;;;;;23.25;14.70;;;;;;;;;;5010152;28;20054;-53
2023/10/18 09:04:52;;;;;;;21.50;14.13;;;;;;;;;;4987679;28;20558;-52
2023/10/18 09:07:21;;;;;;;23.77;15.00;;;;;;;;;;5005580;28;20038;-56
2023/10/18 09:09:55;;;;;;;25.25;14.35;;;;;;;;;;5009508;28;20038;-50
2023/10/18 09:18:03;;;;;;;21.95;15.05;;;;;;;;;;5009969;28;20505;-49
2023/10/18 09:20:29;;;;;;;23.23;14.80;;;;;;;;;;5009928;28;20136;-52
2023/10/18 09:23:14;;;;;;;22.20;14.43;;;;;;;;;;5009781;28;20018;-52
2023/10/18 09:25:48;;;;;;;24.10;14.45;;;;;;;;;;5008586;28;20034;-49
2023/10/18 09:28:19;;;;;;;21.17;14.32;;;;;;;;;;5009776;28;20038;-51
2023/10/18 09:30:45;;;;;;;21.17;14.07;;;;;;;;;;5009507;28;20101;-53
2023/10/18 09:33:13;;;;;;;20.88;13.82;;;;;;;;;;5009527;28;20034;-49
2023/10/18 09:35:39;;;;;;;23.05;14.95;;;;;;;;;;5009607;28;20105;-50
2023/10/18 09:38:09;;;;;;;21.35;13.82;;;;;;;;;;5008088;28;20041;-52
2023/10/18 09:40:40;;;;;;;21.58;14.15;;;;;;;;;;5010072;28;20018;-55
2023/10/18 09:43:06;;;;;;;23.65;14.48;;;;;;;;;;5009822;28;20480;-53
2023/10/18 09:45:36;;;;;;;20.45;14.50;;;;;;;;;;5009789;28;20062;-51
2023/10/18 09:48:02;;;;;;;21.05;14.25;;;;;;;;;;5009509;28;20032;-50
2023/10/18 09:50:31;;;;;;;20.58;14.27;;;;;;;;;;5009442;28;20407;-55
2023/10/18 09:52:57;;;;;;;20.67;14.27;;;;;;;;;;5007775;28;20622;-49
2023/10/18 09:55:27;;;;;;;20.90;13.35;;;;;;;;;;5009085;28;20510;-49
2023/10/18 09:58:02;;;;;;;21.17;13.82;;;;;;;;;;4994966;28;20030;-52
2023/10/18 10:00:30;;;;;;;19.73;13.65;;;;;;;;;;5008814;28;20034;-56
2023/10/18 10:02:56;;;;;;;21.17;13.90;;;;;;;;;;5010137;28;20133;-51
2023/10/18 10:05:25;;;;;;;19.60;13.48;;;;;;;;;;5012399;28;20488;-53
2023/10/18 10:07:57;;;;;;;23.95;14.30;;;;;;;;;;5012129;28;20022;-53
2023/10/18 10:10:24;;;;;;;22.77;13.98;;;;;;;;;;5012126;28;20026;-53
2023/10/18 10:12:57;;;;;;;19.50;13.35;;;;;;;;;;5012687;28;20442;-55
2023/10/18 10:15:28;;;;;;;19.17;13.43;;;;;;;;;;5013136;28;20025;-53
2023/10/18 10:18:00;;;;;;;20.50;13.80;;;;;;;;;;5008612;28;20049;-53
2023/10/18 10:20:31;;;;;;;23.00;14.38;;;;;;;;;;5008994;28;20030;-52
2023/10/18 10:23:02;;;;;;;21.15;13.63;;;;;;;;;;5009604;28;20484;-46
2023/10/18 10:25:31;;;;;;;20.55;14.00;;;;;;;;;;5010758;28;20045;-47
2023/10/18 10:28:13;;;;;;;21.27;14.13;;;;;;;;;;5009315;28;20022;-53
2023/10/18 10:30:43;;;;;;;19.00;13.30;;;;;;;;;;5009597;28;20030;-54
2023/10/18 10:33:12;;;;;;;18.95;14.18;;;;;;;;;;5012815;28;20069;-50
2023/10/18 10:35:47;;;;;;;20.27;13.50;;;;;;;;;;5011849;28;20026;-51
2023/10/18 10:38:14;;;;;;;20.48;13.18;;;;;;;;;;5012414;28;20026;-52
2023/10/18 10:40:43;;;;;;;23.80;14.63;;;;;;;;;;5011751;28;20026;-52
2023/10/18 10:43:11;;;;;;;18.95;14.02;;;;;;;;;;5011954;28;20545;-46
2023/10/18 10:51:20;;;;;;;20.13;13.37;;;;;;;;;;5011896;28;20037;-52
2023/10/18 10:53:57;;;;;;;19.92;13.40;;;;;;;;;;5011914;28;20026;-52
2023/10/18 10:56:32;;;;;;;19.08;13.52;;;;;;;;;;5012003;28;20456;-51
2023/10/18 10:59:43;;;;;;;20.13;13.65;;;;;;;;;;5011764;28;20018;-50
2023/10/18 11:01:57;;;;;;;19.10;14.15;;;;;;;;;;5001445;28;20049;-49
2023/10/18 11:04:27;;;;;;;19.33;14.10;;;;;;;;;;5007425;28;20049;-48
2023/10/18 11:06:57;;;;;;;21.00;14.07;;;;;;;;;;5006581;28;20021;-55
2023/10/18 11:09:32;;;;;;;19.95;14.57;;;;;;;;;;5011417;28;20022;-52
2023/10/18 11:12:01;;;;;;;19.67;13.82;;;;;;;;;;5034980;23;20100;-56
2023/10/18 11:14:30;;;;;;;19.77;14.63;;;;;;;;;;5009127;28;20452;-54
2023/10/18 11:20:12;;;;;;;20.17;13.55;;;;;;;;;;5008515;28;20057;-55
2023/10/18 11:22:41;;;;;;;19.17;13.45;;;;;;;;;;5010100;28;20026;-56
2023/10/18 11:25:09;;;;;;;19.25;13.77;;;;;;;;;;5007534;28;20383;-57
2023/10/18 11:27:37;;;;;;;19.73;14.02;;;;;;;;;;5005803;28;20375;-58
2023/10/18 11:30:16;;;;;;;18.25;13.15;;;;;;;;;;5009403;28;20514;-58
2023/10/18 11:32:42;;;;;;;;;;;;;;;;;;5004258;28;20029;-57
2023/10/18 11:35:09;;;;;;;21.30;13.55;;;;;;;;;;5010491;28;19913;-59
2023/10/18 11:37:38;;;;;;;20.30;14.20;;;;;;;;;;5009620;28;20152;-56
2023/10/18 11:40:27;;;;;;;20.63;13.40;;;;;;;;;;5008226;28;20447;-56
2023/10/18 11:43:06;;;;;;;18.20;13.00;;;;;;;;;;5009576;28;20022;-57
2023/10/18 11:45:38;;;;;;;18.80;13.10;;;;;;;;;;5009148;28;20026;-55
2023/10/18 11:48:06;;;;;;;19.50;12.77;;;;;;;;;;5009376;28;20033;-58
2023/10/18 11:50:38;;;;;;;18.98;12.40;;;;;;;;;;5009248;28;20022;-55
2023/10/18 11:53:08;;;;;;;21.48;13.20;;;;;;;;;;5009326;28;20487;-54
2023/10/18 11:55:37;;;;;;;22.42;13.43;;;;;;;;;;5008965;28;20123;-56
2023/10/18 11:58:09;;;;;;;17.65;12.35;;;;;;;;;;5007879;28;20018;-56
2023/10/18 12:00:38;;;;;;;18.15;12.57;;;;;;;;;;5009102;28;20084;-56
2023/10/18 12:03:05;;;;;;;;;;;;;;;;;;5008107;28;20053;-59
2023/10/18 12:05:31;;;;;;;16.63;12.55;;;;;;;;;;5009196;28;20299;-59
2023/10/18 12:08:05;;;;;;;19.95;13.52;;;;;;;;;;5008540;28;20022;-55
2023/10/18 12:10:35;;;;;;;18.00;13.20;;;;;;;;;;5006327;28;20076;-57
2023/10/18 12:13:11;;;;;;;19.30;12.45;;;;;;;;;;5008264;28;20660;-55
2023/10/18 12:15:38;;;;;;;18.40;12.75;;;;;;;;;;5007014;28;20033;-58
2023/10/18 12:18:05;;;;;;;17.67;12.55;;;;;;;;;;5008500;28;20026;-57
2023/10/18 12:20:43;;;;;;;17.98;13.75;;;;;;;;;;5007949;28;20496;-56
2023/10/18 12:23:18;;;;;;;17.95;12.85;;;;;;;;;;5007182;28;20100;-56
2023/10/18 12:25:44;;;;;;;19.17;13.48;;;;;;;;;;5008750;28;20125;-59
2023/10/18 12:28:15;;;;;;;17.13;12.82;;;;;;;;;;5008475;28;20488;-55
2023/10/18 12:30:44;;;;;;;19.38;12.80;;;;;;;;;;5007588;28;20398;-59
2023/10/18 12:33:25;;;;;;;18.80;12.57;;;;;;;;;;5008150;28;20026;-56
2023/10/18 12:35:52;;;;;;;17.25;12.55;;;;;;;;;;5008785;28;20168;-54
2023/10/18 12:38:30;;;;;;;17.33;12.43;;;;;;;;;;5008900;28;20026;-57
2023/10/18 12:41:00;;;;;;;18.00;12.85;;;;;;;;;;5008221;28;20037;-56
2023/10/18 12:43:31;;;;;;;18.58;12.80;;;;;;;;;;5008215;28;20076;-57
2023/10/18 12:45:57;;;;;;;17.63;13.70;;;;;;;;;;5007961;28;20076;-55
2023/10/18 12:48:23;;;;;;;17.40;13.02;;;;;;;;;;5008814;28;20041;-58
2023/10/18 12:50:53;;;;;;;18.23;13.00;;;;;;;;;;5008600;28;20026;-55
2023/10/18 12:55:58;;;;;;;17.95;13.50;;;;;;;;;;5004283;28;20381;-59
2023/10/18 12:58:31;;;;;;;18.02;13.25;;;;;;;;;;5008836;28;20033;-53
2023/10/18 13:01:08;;;;;;;18.05;13.98;;;;;;;;;;5008324;28;20081;-56
2023/10/18 13:03:37;;;;;;;18.02;13.73;;;;;;;;;;5007999;28;20034;-54
2023/10/18 13:06:15;;;;;;;19.27;13.18;;;;;;;;;;5003597;28;20460;-53
2023/10/18 13:08:54;;;;;;;18.98;13.95;;;;;;;;;;5006144;28;20029;-55
2023/10/18 13:14:05;;;;;;;17.25;13.25;;;;;;;;;;5007118;28;20168;-57
2023/10/18 13:16:32;;;;;;;17.80;13.80;;;;;;;;;;5007658;28;20057;-57
2023/10/18 13:18:58;;;;;;;17.48;13.60;;;;;;;;;;5007564;28;20030;-56
2023/10/18 13:21:29;;;;;;;17.08;13.45;;;;;;;;;;5007129;28;20014;-57
2023/10/18 13:24:56;;;;;;;18.17;13.68;;;;;;;;;;5006514;28;20369;-58
2023/10/18 13:26:59;;;;;;;18.92;13.18;;;;;;;;;;4998998;28;20052;-56
2023/10/18 13:31:52;;;;;;;17.33;13.32;;;;;;;;;;5007693;28;20034;-58
2023/10/18 13:34:18;;;;;;;17.15;13.07;;;;;;;;;;5007665;28;20041;-54
2023/10/18 13:36:48;;;;;;;18.92;13.95;;;;;;;;;;5009277;28;20026;-56
2023/10/18 13:39:17;;;;;;;17.70;14.00;;;;;;;;;;5011506;28;20026;-59
2023/10/18 13:41:47;;;;;;;16.95;13.27;;;;;;;;;;5008157;28;20022;-58
2023/10/18 13:44:14;;;;;;;19.20;13.52;;;;;;;;;;5005716;28;20424;-57
2023/10/18 13:46:40;;;;;;;17.67;14.35;;;;;;;;;;5010419;28;20411;-54
2023/10/18 13:49:08;;;;;;;18.02;13.45;;;;;;;;;;5010564;28;20109;-57
2023/10/18 13:51:37;;;;;;;17.27;13.45;;;;;;;;;;5010269;28;20507;-56
2023/10/18 13:54:04;;;;;;;17.67;14.18;;;;;;;;;;5011381;28;20029;-55
2023/10/18 13:56:31;;;;;;;17.20;13.38;;;;;;;;;;5011312;28;20107;-57
2023/10/18 13:58:57;;;;;;;17.67;13.57;;;;;;;;;;5011402;28;20038;-57
2023/10/18 14:01:25;;;;;;;18.33;13.93;;;;;;;;;;5010815;28;20369;-56
2023/10/18 14:03:51;;;;;;;16.63;13.00;;;;;;;;;;5011011;28;20026;-58
2023/10/18 14:06:18;;;;;;;22.48;13.32;;;;;;;;;;5011202;28;20041;-55
2023/10/18 14:08:45;;;;;;;17.45;13.60;;;;;;;;;;5010795;28;20037;-58
2023/10/18 14:11:15;;;;;;;17.55;13.13;;;;;;;;;;5011001;28;20033;-57
2023/10/18 14:13:44;;;;;;;16.63;13.20;;;;;;;;;;5010604;28;20038;-57
2023/10/18 14:16:17;;;;;;;19.80;14.13;;;;;;;;;;5011226;28;20029;-59
2023/10/18 14:18:48;;;;;;;17.90;13.70;;;;;;;;;;5011009;28;20026;-55
2023/10/18 14:21:15;;;;;;;18.95;14.15;;;;;;;;;;5010632;28;20028;-57
2023/10/18 14:23:41;;;;;;;17.02;13.60;;;;;;;;;;5010732;28;20053;-55
2023/10/18 14:26:07;;;;;;;17.55;13.77;;;;;;;;;;5011092;28;20069;-55
2023/10/18 14:28:34;;;;;;;18.80;13.95;;;;;;;;;;5009418;28;20022;-55
2023/10/18 14:31:02;;;;;;;18.23;13.40;;;;;;;;;;5010679;28;20042;-54
2023/10/18 14:33:28;;;;;;;17.58;12.98;;;;;;;;;;5009475;28;20435;-55
2023/10/18 14:35:54;;;;;;;18.15;13.02;;;;;;;;;;5009248;28;20044;-57
2023/10/18 14:38:20;;;;;;;16.90;12.90;;;;;;;;;;5009507;28;20349;-57
2023/10/18 14:40:46;;;;;;;18.63;13.43;;;;;;;;;;5010680;28;20451;-58
2023/10/18 14:43:13;;;;;;;16.45;13.55;;;;;;;;;;5009936;28;20559;-55
2023/10/18 14:45:42;;;;;;;17.08;13.00;;;;;;;;;;5009463;28;20388;-55
2023/10/18 14:48:08;;;;;;;17.05;13.35;;;;;;;;;;5009639;28;20065;-53
2023/10/18 14:50:35;;;;;;;17.90;13.52;;;;;;;;;;5010804;28;20040;-54
2023/10/18 14:53:01;;;;;;;17.83;13.10;;;;;;;;;;5009535;28;20041;-57
2023/10/18 14:55:30;;;;;;;18.67;14.00;;;;;;;;;;5009690;28;20396;-52
2023/10/18 14:57:56;;;;;;;17.17;13.30;;;;;;;;;;5009310;28;20490;-55
2023/10/18 15:00:22;;;;;;;18.95;13.05;;;;;;;;;;5010271;28;20030;-56
2023/10/18 15:02:50;;;;;;;18.58;13.30;;;;;;;;;;5010418;28;20030;-52
2023/10/18 15:05:17;;;;;;;17.35;13.15;;;;;;;;;;5010478;28;20030;-53
2023/10/18 15:07:43;;;;;;;17.73;12.70;;;;;;;;;;5009560;28;20088;-58
2023/10/18 15:10:09;;;;;;;15.88;11.75;;;;;;;;;;5010380;28;20041;-55
2023/10/18 15:12:39;;;;;;;18.83;13.10;;;;;;;;;;5008867;28;20044;-51
2023/10/18 15:15:14;;;;;;;18.73;13.13;;;;;;;;;;5010133;28;20438;-54
2023/10/18 15:17:42;;;;;;;19.55;12.70;;;;;;;;;;5010564;28;20354;-52
2023/10/18 15:20:08;;;;;;;20.17;12.50;;;;;;;;;;5010228;28;20028;-54
2023/10/18 15:22:34;;;;;;;17.30;12.57;;;;;;;;;;5009912;28;20022;-56
2023/10/18 15:25:04;;;;;;;17.45;12.10;;;;;;;;;;5028230;28;20037;-54
2023/10/18 15:27:30;;;;;;;17.20;12.18;;;;;;;;;;5030110;28;20049;-56
2023/10/18 15:29:56;;;;;;;18.40;12.82;;;;;;;;;;5029862;28;20549;-57
2023/10/18 15:32:22;;;;;;;17.75;12.70;;;;;;;;;;5029545;28;20068;-55
2023/10/18 15:34:48;;;;;;;18.75;12.57;;;;;;;;;;5029834;28;20069;-53
2023/10/18 15:37:14;;;;;;;18.52;12.60;;;;;;;;;;5013613;28;20122;-58